Time,TemperatureF,DewpointF,PressureIn,WindDirection,WindDirectionDegrees,WindSpeedMPH,WindSpeedGustMPH,Humidity,HourlyPrecipIn,Conditions,Clouds,dailyrainin,SolarRadiationWatts/m^2,SoftwareType,DateUTC
2013-05-15 00:08:00,39.8,33.0,30.02,West,275,0.0,2.0,77,0.00,,,0.00,0,weatherlink.com 1.10,2013-05-15 04:08:00,
2013-05-15 00:23:00,40.3,33.0,30.02,West,275,0.0,1.0,76,0.00,,,0.00,0,weatherlink.com 1.10,2013-05-15 04:23:00,
2013-05-15 00:38:00,39.2,33.0,30.02,West,275,0.0,0.0,78,0.00,,,0.00,0,weatherlink.com 1.10,2013-05-15 04:38:00,
2013-05-15 00:53:00,38.7,33.0,30.02,West,275,0.0,0.0,79,0.00,,,0.00,0,weatherlink.com 1.10,2013-05-15 04:53:00,
2013-05-15 01:08:00,38.0,33.0,30.02,West,275,0.0,1.0,82,0.00,,,0.00,0,weatherlink.com 1.10,2013-05-15 05:08:00,
2013-05-15 01:23:00,38.0,33.0,30.02,West,275,0.0,0.0,82,0.00,,,0.00,0,weatherlink.com 1.10,2013-05-15 05:23:00,
2013-05-15 01:38:00,37.0,33.0,30.02,West,275,0.0,0.0,84,0.00,,,0.00,0,weatherlink.com 1.10,2013-05-15 05:38:00,
2013-05-15 01:53:00,36.7,33.0,30.02,West,275,0.0,0.0,85,0.00,,,0.00,0,weatherlink.com 1.10,2013-05-15 05:53:00,
2013-05-15 02:08:00,36.7,33.0,30.02,West,275,0.0,0.0,86,0.00,,,0.00,0,weatherlink.com 1.10,2013-05-15 06:08:00,
2013-05-15 02:23:00,36.4,32.0,30.02,West,275,0.0,0.0,85,0.00,,,0.00,0,weatherlink.com 1.10,2013-05-15 06:23:00,
2013-05-15 02:38:00,36.0,32.0,30.02,West,275,0.0,0.0,86,0.00,,,0.00,0,weatherlink.com 1.10,2013-05-15 06:38:00,
2013-05-15 02:54:00,35.5,32.0,30.02,West,275,0.0,0.0,87,0.00,,,0.00,0,weatherlink.com 1.10,2013-05-15 06:54:00,
2013-05-15 03:09:00,35.4,32.0,30.02,West,275,0.0,0.0,87,0.00,,,0.00,0,weatherlink.com 1.10,2013-05-15 07:09:00,
2013-05-15 03:24:00,35.5,32.0,30.01,West,275,0.0,0.0,87,0.00,,,0.00,0,weatherlink.com 1.10,2013-05-15 07:24:00,
2013-05-15 03:39:00,35.5,32.0,30.01,West,275,0.0,0.0,87,0.00,,,0.00,0,weatherlink.com 1.10,2013-05-15 07:39:00,
2013-05-15 03:54:00,35.2,32.0,30.01,West,275,0.0,0.0,87,0.00,,,0.00,0,weatherlink.com 1.10,2013-05-15 07:54:00,
2013-05-15 04:09:00,35.1,32.0,30.01,West,275,0.0,0.0,87,0.00,,,0.00,0,weatherlink.com 1.10,2013-05-15 08:09:00,
2013-05-15 04:24:00,34.8,31.0,30.00,West,275,0.0,0.0,87,0.00,,,0.00,0,weatherlink.com 1.10,2013-05-15 08:24:00,
2013-05-15 04:39:00,34.7,31.0,30.00,West,275,0.0,0.0,87,0.00,,,0.00,0,weatherlink.com 1.10,2013-05-15 08:39:00,
2013-05-15 04:54:00,34.5,31.0,30.00,West,275,0.0,0.0,87,0.00,,,0.00,0,weatherlink.com 1.10,2013-05-15 08:54:00,
2013-05-15 05:09:00,34.4,31.0,30.00,West,275,0.0,1.0,88,0.00,,,0.00,0,weatherlink.com 1.10,2013-05-15 09:09:00,
2013-05-15 05:24:00,34.2,31.0,30.00,West,275,0.0,1.0,87,0.00,,,0.00,0,weatherlink.com 1.10,2013-05-15 09:24:00,
2013-05-15 05:39:00,34.2,31.0,29.99,West,275,0.0,0.0,88,0.00,,,0.00,0,weatherlink.com 1.10,2013-05-15 09:39:00,
2013-05-15 05:54:00,34.2,31.0,29.99,West,275,0.0,1.0,88,0.00,,,0.00,11,weatherlink.com 1.10,2013-05-15 09:54:00,
2013-05-15 06:09:00,34.4,31.0,29.99,West,275,0.0,1.0,88,0.00,,,0.00,21,weatherlink.com 1.10,2013-05-15 10:09:00,
2013-05-15 06:24:00,34.4,31.0,30.00,West,275,0.0,1.0,88,0.00,,,0.00,23,weatherlink.com 1.10,2013-05-15 10:24:00,
2013-05-15 06:39:00,35.1,32.0,30.00,West,275,1.0,1.0,89,0.00,,,0.00,23,weatherlink.com 1.10,2013-05-15 10:39:00,
2013-05-15 06:54:00,35.6,33.0,29.98,West,275,0.0,1.0,89,0.00,,,0.00,28,weatherlink.com 1.10,2013-05-15 10:54:00,
2013-05-15 07:09:00,36.4,33.0,29.98,West,275,0.0,0.0,88,0.00,,,0.00,47,weatherlink.com 1.10,2013-05-15 11:09:00,
2013-05-15 07:24:00,36.9,34.0,29.97,West,275,0.0,1.0,88,0.00,,,0.00,63,weatherlink.com 1.10,2013-05-15 11:24:00,
2013-05-15 07:39:00,38.0,35.0,29.97,West,275,0.0,1.0,88,0.00,,,0.00,77,weatherlink.com 1.10,2013-05-15 11:39:00,
2013-05-15 07:54:00,38.7,36.0,29.97,West,275,0.0,1.0,88,0.00,,,0.00,76,weatherlink.com 1.10,2013-05-15 11:54:00,
2013-05-15 08:24:00,43.0,39.0,29.95,North,355,0.0,3.0,87,0.00,,,0.00,109,weatherlink.com 1.10,2013-05-15 12:24:00,
2013-05-15 08:54:00,46.9,39.0,29.93,ENE,63,1.0,2.0,75,0.00,,,0.00,148,weatherlink.com 1.10,2013-05-15 12:54:00,
2013-05-15 09:09:00,49.4,39.0,29.93,NNW,329,1.0,3.0,68,0.00,,,0.00,185,weatherlink.com 1.10,2013-05-15 13:09:00,
2013-05-15 09:24:00,51.0,39.0,29.93,NW,318,0.0,5.0,63,0.00,,,0.00,192,weatherlink.com 1.10,2013-05-15 13:24:00,
2013-05-15 09:40:00,52.3,39.0,29.92,NNE,25,0.0,4.0,61,0.00,,,0.00,200,weatherlink.com 1.10,2013-05-15 13:40:00,
2013-05-15 09:55:00,52.1,39.0,29.91,NNW,344,2.0,4.0,61,0.00,,,0.00,158,weatherlink.com 1.10,2013-05-15 13:55:00,
2013-05-15 10:25:00,52.8,39.0,29.90,North,355,0.0,3.0,61,0.00,,,0.00,91,weatherlink.com 1.10,2013-05-15 14:25:00,
2013-05-15 10:40:00,52.7,41.0,29.90,NNE,17,0.0,3.0,64,0.00,,,0.00,111,weatherlink.com 1.10,2013-05-15 14:40:00,
2013-05-15 11:10:00,52.7,41.0,29.91,WNW,298,0.0,2.0,65,0.00,,,0.00,72,weatherlink.com 1.10,2013-05-15 15:10:00,
2013-05-15 11:25:00,52.7,40.0,29.91,WNW,298,0.0,3.0,62,0.00,,,0.00,53,weatherlink.com 1.10,2013-05-15 15:25:00,
2013-05-15 11:40:00,52.9,41.0,29.89,NNW,338,1.0,6.0,65,0.00,,,0.00,83,weatherlink.com 1.10,2013-05-15 15:40:00,
2013-05-15 11:55:00,52.2,44.0,29.89,North,360,1.0,3.0,73,0.01,,,0.01,77,weatherlink.com 1.10,2013-05-15 15:55:00,
2013-05-15 12:10:00,51.3,44.0,29.87,WNW,293,3.0,5.0,76,0.01,,,0.01,54,weatherlink.com 1.10,2013-05-15 16:10:00,
2013-05-15 12:40:00,50.2,45.0,29.82,NNW,328,0.0,3.0,82,0.03,,,0.03,91,weatherlink.com 1.10,2013-05-15 16:40:00,
2013-05-15 13:10:00,50.1,46.0,29.80,NNW,344,2.0,4.0,87,0.01,,,0.03,371,weatherlink.com 1.10,2013-05-15 17:10:00,
2013-05-15 13:25:00,53.2,48.0,29.80,SSE,150,0.0,6.0,82,0.01,,,0.03,225,weatherlink.com 1.10,2013-05-15 17:25:00,
2013-05-15 13:40:00,54.0,48.0,29.79,South,169,2.0,7.0,81,0.00,,,0.03,171,weatherlink.com 1.10,2013-05-15 17:40:00,
2013-05-15 13:55:00,54.3,48.0,29.79,North,360,0.0,6.0,79,0.00,,,0.03,167,weatherlink.com 1.10,2013-05-15 17:55:00,
2013-05-15 14:10:00,55.2,49.0,29.76,NW,304,0.0,9.0,79,0.00,,,0.03,179,weatherlink.com 1.10,2013-05-15 18:10:00,
2013-05-15 14:25:00,55.9,49.0,29.75,NNW,348,1.0,7.0,78,0.00,,,0.03,132,weatherlink.com 1.10,2013-05-15 18:25:00,
2013-05-15 14:40:00,56.9,50.0,29.74,North,350,1.0,5.0,79,0.00,,,0.03,190,weatherlink.com 1.10,2013-05-15 18:40:00,
2013-05-15 14:55:00,59.1,50.0,29.73,NW,317,2.0,8.0,73,0.00,,,0.03,183,weatherlink.com 1.10,2013-05-15 18:55:00,
2013-05-15 15:10:00,58.4,50.0,29.72,NNW,331,0.0,3.0,74,0.00,,,0.03,244,weatherlink.com 1.10,2013-05-15 19:10:00,
2013-05-15 15:25:00,63.2,52.0,29.69,North,350,0.0,5.0,66,0.00,,,0.03,840,weatherlink.com 1.10,2013-05-15 19:25:00,
2013-05-15 15:40:00,64.4,50.0,29.66,WNW,300,3.0,5.0,59,0.00,,,0.03,445,weatherlink.com 1.10,2013-05-15 19:40:00,
2013-05-15 15:55:00,65.1,50.0,29.64,NNE,13,0.0,7.0,59,0.00,,,0.03,735,weatherlink.com 1.10,2013-05-15 19:55:00,
2013-05-15 16:11:00,66.5,50.0,29.63,ESE,109,0.0,10.0,56,0.00,,,0.03,744,weatherlink.com 1.10,2013-05-15 20:11:00,
2013-05-15 16:41:00,66.9,50.0,29.62,North,351,0.0,10.0,54,0.00,,,0.03,612,weatherlink.com 1.10,2013-05-15 20:41:00,
2013-05-15 16:56:00,67.1,50.0,29.63,NNW,334,0.0,7.0,55,0.00,,,0.03,564,weatherlink.com 1.10,2013-05-15 20:56:00,
2013-05-15 17:11:00,67.2,50.0,29.63,North,5,1.0,5.0,54,0.00,,,0.03,510,weatherlink.com 1.10,2013-05-15 21:11:00,
2013-05-15 17:26:00,67.1,51.0,29.62,North,355,3.0,7.0,56,0.00,,,0.03,448,weatherlink.com 1.10,2013-05-15 21:26:00,
2013-05-15 17:41:00,67.7,51.0,29.61,WSW,242,1.0,5.0,55,0.00,,,0.03,388,weatherlink.com 1.10,2013-05-15 21:41:00,
2013-05-15 17:56:00,67.7,51.0,29.61,North,360,3.0,4.0,56,0.00,,,0.03,329,weatherlink.com 1.10,2013-05-15 21:56:00,
2013-05-15 18:26:00,65.1,52.0,29.59,NW,315,0.0,4.0,62,0.00,,,0.03,77,weatherlink.com 1.10,2013-05-15 22:26:00,
2013-05-15 18:41:00,65.7,52.0,29.59,West,281,2.0,5.0,62,0.00,,,0.03,123,weatherlink.com 1.10,2013-05-15 22:41:00,
2013-05-15 18:56:00,65.8,53.0,29.60,NNE,13,1.0,4.0,64,0.00,,,0.03,155,weatherlink.com 1.10,2013-05-15 22:56:00,
2013-05-15 19:11:00,66.0,53.0,29.60,WNW,299,1.0,2.0,64,0.00,,,0.03,93,weatherlink.com 1.10,2013-05-15 23:11:00,
2013-05-15 19:41:00,64.0,53.0,29.58,WNW,297,0.0,3.0,68,0.00,,,0.03,14,weatherlink.com 1.10,2013-05-15 23:41:00,
2013-05-15 19:56:00,64.1,54.0,29.59,WNW,294,0.0,2.0,69,0.00,,,0.03,5,weatherlink.com 1.10,2013-05-15 23:56:00,
2013-05-15 20:11:00,63.6,53.0,29.59,WNW,294,0.0,1.0,69,0.00,,,0.03,0,weatherlink.com 1.10,2013-05-16 00:11:00,
2013-05-15 20:26:00,62.6,53.0,29.59,WNW,294,0.0,2.0,71,0.00,,,0.03,0,weatherlink.com 1.10,2013-05-16 00:26:00,
2013-05-15 20:41:00,62.0,53.0,29.59,WNW,294,1.0,2.0,73,0.00,,,0.03,0,weatherlink.com 1.10,2013-05-16 00:41:00,
2013-05-15 20:56:00,61.5,53.0,29.61,WNW,294,0.0,1.0,74,0.00,,,0.03,0,weatherlink.com 1.10,2013-05-16 00:56:00,
2013-05-15 21:11:00,61.4,53.0,29.61,NNW,329,0.0,6.0,75,0.00,,,0.03,0,weatherlink.com 1.10,2013-05-16 01:11:00,
2013-05-15 21:56:00,61.1,54.0,29.64,South,170,0.0,1.0,76,0.00,,,0.03,0,weatherlink.com 1.10,2013-05-16 01:56:00,
2013-05-15 22:26:00,60.8,54.0,29.65,SSE,161,0.0,0.0,77,0.00,,,0.03,0,weatherlink.com 1.10,2013-05-16 02:26:00,
2013-05-15 23:11:00,59.4,53.0,29.65,SSE,161,0.0,1.0,80,0.00,,,0.03,0,weatherlink.com 1.10,2013-05-16 03:11:00,
2013-05-15 23:26:00,58.6,53.0,29.65,SSE,161,0.0,1.0,81,0.00,,,0.03,0,weatherlink.com 1.10,2013-05-16 03:26:00,
2013-05-15 23:41:00,57.7,52.0,29.66,SSE,161,0.0,1.0,82,0.00,,,0.03,0,weatherlink.com 1.10,2013-05-16 03:41:00,
2013-05-15 23:56:00,56.6,52.0,29.66,SSE,161,0.0,0.0,83,0.00,,,0.03,0,weatherlink.com 1.10,2013-05-16 03:56:00,